Des Moines, IA (50311)

4:49 PM CDT on July 30, 2016 (GMT -0500)
South Merle Hay Road | | Change Station

Elev 950 ft 41.61 °N, 93.70 °W | Updated 8 minutes ago

Mostly Cloudy
Mostly Cloudy
82.7 °F
Feels Like 86 °F
N
0.0
Wind Variable Wind from ENE
Gusts 3.0 mph

Today
High -- | Low -- °F
--% Chance of Precip.
Yesterday
High -- | Low -- °F
Precip. -- in
Pressure 29.97 in
Visibility 10.0 miles
Clouds Scattered Clouds 4300 ft
Scattered Clouds 5500 ft
Mostly Cloudy 7500 ft
Mostly Cloudy 25000 ft
Heat Index 86 °F
Dew Point 68 °F
Humidity 62%
Rainfall 0.00 in
Snow Depth Not available.
6:07 AM 8:33 PM
Waning Crescent, 11% visible
METAR KDSM 302054Z 16005KT 10SM SCT043 SCT055 BKN075 BKN250 26/18 A2998 RMK AO2 SLP147 T02610183 56012
Pressure 29.97 in
Visibility 10.0 miles
Clouds Scattered Clouds 4300 ft
Scattered Clouds 5500 ft
Mostly Cloudy 7500 ft
Mostly Cloudy 25000 ft
Heat Index 86 °F
Dew Point 68 °F
Humidity 62%
Rainfall 0.00 in
Snow Depth Not available.
6:07 AM 8:33 PM
Waning Crescent, 11% visible
METAR KDSM 302054Z 16005KT 10SM SCT043 SCT055 BKN075 BKN250 26/18 A2998 RMK AO2 SLP147 T02610183 56012

10-Day Weather Forecast

Almanac

Astronomy

Jul. 30, 2016 Rise Set
Actual Time
Civil Twilight
Nautical Twilight
Astronomical Twilight
Moon
Length of Visible Light
Length of Day
Tomorrow will be .
, % of the Moon is Illuminated

Today's Extremes

State Highs State Lows

Community

WunderPhotos

Upload Photos

1,928,657 photos uploaded!

WunderBlog® & News

Nearby

Air Quality

  Air Quality AQ Index Pollutant
Not available.

Snow Depth

Station Depth Elevation

Earthquake Activity

City Distance Mag. Time & Date
Minimum magnitude displayed is 2.5.

Coastal Water Temperatures

Place Temperature

Stations

Nearby Weather Stations

Station Location Temp. Windchill Dew Point Humidity Wind Precip. Elev Updated Type
                   

Watches & Warnings

There are currently no watches in effect.